createdAt,value
2018-07-30T00:04:33.955Z,21.60
2018-07-30T00:07:02.368Z,21.50
2018-07-30T00:09:30.474Z,21.60
2018-07-30T00:11:59.581Z,21.60
2018-07-30T00:14:27.917Z,21.60
2018-07-30T00:16:56.462Z,21.50
2018-07-30T00:19:26.014Z,21.40
2018-07-30T00:21:55.165Z,21.30
2018-07-30T00:24:23.937Z,21.30
2018-07-30T00:26:52.237Z,21.20
2018-07-30T00:29:20.796Z,21.20
2018-07-30T00:31:49.049Z,21.10
2018-07-30T00:34:17.882Z,21.00
2018-07-30T00:36:47.158Z,21.00
2018-07-30T00:39:15.513Z,21.00
2018-07-30T00:41:43.877Z,20.90
2018-07-30T00:46:41.429Z,20.90
2018-07-30T00:49:09.890Z,20.90
2018-07-30T00:51:38.497Z,20.90
2018-07-30T00:54:06.932Z,20.90
2018-07-30T01:01:33.090Z,20.80
2018-07-30T01:06:29.500Z,20.70
2018-07-30T01:08:58.761Z,20.70
2018-07-30T01:11:26.941Z,20.60
2018-07-30T01:13:55.897Z,20.50
2018-07-30T01:16:24.968Z,20.50
2018-07-30T01:18:54.321Z,20.40
2018-07-30T01:21:22.917Z,20.40
2018-07-30T01:23:51.398Z,20.30
2018-07-30T01:26:25.101Z,20.30
2018-07-30T01:28:53.854Z,20.30
2018-07-30T01:31:23.849Z,20.20
2018-07-30T01:33:52.517Z,20.20
2018-07-30T01:36:20.722Z,20.20
2018-07-30T01:38:49.676Z,20.20
2018-07-30T01:41:18.361Z,20.10
2018-07-30T01:43:47.416Z,20.10
2018-07-30T01:48:43.533Z,20.20
2018-07-30T01:51:11.906Z,20.20
2018-07-30T01:53:41.314Z,20.20
2018-07-30T01:56:10.918Z,20.20
2018-07-30T01:59:42.868Z,20.30
2018-07-30T02:03:14.270Z,20.20
2018-07-30T02:05:42.379Z,20.00
2018-07-30T02:08:10.742Z,20.00
2018-07-30T02:10:38.805Z,19.90
2018-07-30T02:15:35.738Z,19.90
2018-07-30T02:18:04.761Z,19.90
2018-07-30T02:23:02.918Z,19.90
2018-07-30T02:25:31.913Z,19.80
2018-07-30T02:28:00.101Z,19.70
2018-07-30T02:30:28.902Z,19.60
2018-07-30T02:32:57.079Z,19.50
2018-07-30T02:35:25.801Z,19.40
2018-07-30T02:37:54.061Z,19.40
2018-07-30T02:40:22.781Z,19.40
2018-07-30T02:42:51.489Z,19.40
2018-07-30T02:45:19.758Z,19.50
2018-07-30T02:47:48.116Z,19.60
2018-07-30T02:50:16.337Z,19.70
2018-07-30T02:52:44.832Z,19.70
2018-07-30T02:55:12.955Z,19.80
2018-07-30T02:57:42.311Z,19.90
2018-07-30T03:00:11.219Z,19.90
2018-07-30T03:02:39.285Z,19.90
2018-07-30T03:12:33.801Z,19.90
2018-07-30T03:15:01.950Z,19.50
2018-07-30T03:17:30.223Z,19.40
2018-07-30T03:19:58.877Z,19.30
2018-07-30T03:22:27.917Z,19.30
2018-07-30T03:24:56.425Z,19.30
2018-07-30T03:27:25.170Z,19.20
2018-07-30T03:29:54.381Z,19.30
2018-07-30T03:32:22.461Z,19.30
2018-07-30T03:34:51.290Z,19.30
2018-07-30T03:37:19.569Z,19.30
2018-07-30T03:39:47.693Z,19.20
2018-07-30T03:42:17.734Z,19.20
2018-07-30T03:44:48.513Z,19.20
2018-07-30T03:47:16.718Z,19.20
2018-07-30T03:49:45.637Z,19.20
2018-07-30T03:52:14.553Z,19.20
2018-07-30T03:57:12.485Z,19.20
2018-07-30T03:59:41.080Z,19.30
2018-07-30T04:02:10.054Z,19.40
2018-07-30T04:04:39.452Z,19.40
2018-07-30T04:07:07.812Z,19.50
2018-07-30T04:09:36.237Z,19.60
2018-07-30T04:12:04.774Z,19.60
2018-07-30T04:19:29.637Z,19.80
2018-07-30T04:21:58.770Z,19.80
2018-07-30T04:24:27.741Z,19.90
2018-07-30T04:26:56.332Z,20.00
2018-07-30T04:29:24.496Z,20.00
2018-07-30T04:31:52.570Z,20.10
2018-07-30T04:34:20.647Z,20.30
2018-07-30T04:36:49.308Z,20.30
2018-07-30T04:39:17.484Z,20.30
2018-07-30T04:41:45.560Z,20.30
2018-07-30T04:44:13.729Z,20.30
2018-07-30T04:46:42.990Z,20.40
2018-07-30T04:49:11.061Z,20.40
2018-07-30T04:51:39.163Z,20.50
2018-07-30T04:54:07.393Z,20.50
2018-07-30T04:56:36.365Z,20.50
2018-07-30T04:59:05.040Z,20.50
2018-07-30T05:01:33.976Z,20.50
2018-07-30T05:06:31.401Z,20.70
2018-07-30T05:08:59.641Z,20.90
2018-07-30T05:13:56.577Z,20.90
2018-07-30T05:16:25.527Z,20.90
2018-07-30T05:18:53.745Z,21.00
2018-07-30T05:21:22.553Z,21.00
2018-07-30T05:23:50.648Z,21.00
2018-07-30T05:26:19.069Z,21.00
2018-07-30T05:28:47.745Z,21.00
2018-07-30T05:31:16.512Z,21.10
2018-07-30T05:33:44.866Z,21.10
2018-07-30T05:38:41.365Z,21.20
2018-07-30T05:41:10.502Z,21.30
2018-07-30T05:43:39.473Z,21.40
2018-07-30T05:46:08.341Z,21.50
2018-07-30T05:48:37.265Z,21.60
2018-07-30T05:51:06.231Z,21.60
2018-07-30T05:53:34.612Z,21.70
2018-07-30T05:56:02.645Z,21.70
2018-07-30T05:58:31.313Z,21.80
2018-07-30T06:01:00.353Z,22.00
2018-07-30T06:03:29.027Z,22.20
2018-07-30T06:05:57.252Z,22.40
2018-07-30T06:08:25.634Z,22.70
2018-07-30T06:10:54.327Z,22.80
2018-07-30T06:13:22.833Z,23.00
2018-07-30T06:25:45.364Z,23.70
2018-07-30T06:30:42.017Z,24.10
2018-07-30T06:33:10.446Z,24.00
2018-07-30T06:35:39.329Z,24.00
2018-07-30T06:38:07.406Z,23.80
2018-07-30T06:40:35.850Z,23.70
2018-07-30T06:43:04.078Z,23.60
2018-07-30T06:45:32.513Z,23.60
2018-07-30T06:48:02.893Z,23.80
2018-07-30T06:50:31.909Z,24.40
2018-07-30T06:53:00.137Z,25.40
2018-07-30T06:55:29.211Z,25.90
2018-07-30T06:57:58.229Z,26.50
2018-07-30T07:00:26.382Z,27.00
2018-07-30T07:02:55.189Z,26.70
2018-07-30T07:05:24.537Z,26.60
2018-07-30T07:07:53.571Z,26.60
2018-07-30T07:10:22.856Z,27.10
2018-07-30T07:12:52.121Z,28.10
2018-07-30T07:15:20.363Z,28.80
2018-07-30T07:17:49.445Z,29.70
2018-07-30T07:20:18.765Z,29.80
2018-07-30T07:22:47.777Z,30.40
2018-07-30T07:25:16.926Z,30.90
2018-07-30T07:27:45.109Z,31.60
2018-07-30T07:30:14.049Z,32.00
2018-07-30T07:35:12.315Z,31.60
2018-07-30T07:37:40.582Z,31.50
2018-07-30T07:40:09.299Z,31.70
2018-07-30T07:42:38.277Z,32.60
2018-07-30T07:45:07.266Z,32.50
2018-07-30T07:47:35.982Z,32.60
2018-07-30T07:57:30.579Z,35.40
2018-07-30T07:59:58.787Z,34.60
2018-07-30T08:02:27.168Z,34.30
2018-07-30T08:04:55.289Z,33.80
2018-07-30T08:07:25.733Z,33.10
2018-07-30T08:09:55.043Z,32.90
2018-07-30T08:12:23.661Z,33.00
2018-07-30T08:14:52.234Z,32.50
2018-07-30T08:17:20.294Z,32.30
2018-07-30T08:19:48.628Z,32.20
2018-07-30T08:22:17.691Z,32.70
2018-07-30T08:24:45.833Z,34.00
2018-07-30T08:27:14.117Z,34.70
2018-07-30T08:29:42.797Z,35.50
2018-07-30T09:56:37.781Z,33.30
2018-07-30T09:59:06.978Z,33.30
2018-07-30T10:01:35.766Z,33.40
2018-07-30T10:04:04.133Z,33.30
2018-07-30T10:09:01.897Z,33.20
2018-07-30T10:11:30.046Z,32.80
2018-07-30T10:13:58.925Z,33.60
2018-07-30T10:16:26.993Z,34.00
2018-07-30T10:18:55.157Z,35.50
2018-07-30T10:21:25.109Z,37.60
2018-07-30T10:23:53.625Z,39.30
2018-07-30T10:26:22.042Z,39.40
2018-07-30T10:28:50.552Z,37.80
2018-07-30T10:31:19.196Z,37.50
2018-07-30T10:33:48.152Z,37.10
2018-07-30T10:38:45.724Z,37.50
2018-07-30T10:43:43.634Z,40.20
2018-07-30T10:46:11.870Z,40.40
2018-07-30T10:48:40.050Z,41.80
2018-07-30T10:51:08.857Z,42.10
2018-07-30T10:53:37.189Z,41.40
2018-07-30T10:56:06.109Z,40.00
2018-07-30T10:58:34.921Z,38.50
2018-07-30T11:03:31.444Z,37.80
2018-07-30T11:06:00.042Z,36.80
2018-07-30T11:08:29.012Z,36.20
2018-07-30T11:12:00.017Z,36.00
2018-07-30T11:14:29.069Z,35.60
2018-07-30T11:16:57.495Z,35.70
2018-07-30T11:19:25.890Z,36.70
2018-07-30T11:21:54.217Z,37.80
2018-07-30T11:26:50.885Z,39.70
2018-07-30T11:31:47.305Z,40.40
2018-07-30T11:34:16.441Z,41.40
2018-07-30T11:39:13.897Z,42.10
2018-07-30T11:41:42.475Z,41.30
2018-07-30T11:44:10.599Z,40.70
2018-07-30T11:46:39.266Z,40.30
2018-07-30T11:49:07.779Z,39.50
2018-07-30T11:51:36.764Z,38.40
2018-07-30T11:54:05.026Z,38.40
2018-07-30T11:56:34.778Z,37.50
2018-07-30T11:59:03.234Z,37.80
2018-07-30T12:01:31.967Z,37.90
2018-07-30T12:04:01.094Z,37.20
2018-07-30T12:06:29.705Z,37.60
2018-07-30T12:08:57.958Z,37.00
2018-07-30T12:11:26.225Z,36.50
2018-07-30T12:16:22.799Z,36.00
2018-07-30T12:18:51.145Z,36.00
2018-07-30T12:21:19.568Z,35.60
2018-07-30T12:23:48.281Z,35.60
2018-07-30T12:26:17.596Z,35.40
2018-07-30T12:28:45.836Z,34.90
2018-07-30T12:31:14.237Z,35.20
2018-07-30T12:33:43.547Z,35.00
2018-07-30T12:36:12.556Z,35.40
2018-07-30T12:38:40.542Z,36.20
2018-07-30T12:43:36.527Z,37.80
2018-07-30T12:46:04.804Z,38.20
2018-07-30T12:48:33.237Z,38.80
2018-07-30T12:51:02.557Z,38.70
2018-07-30T12:53:30.693Z,38.30
2018-07-30T12:55:58.837Z,38.20
2018-07-30T12:58:27.789Z,38.10
2018-07-30T13:03:23.871Z,38.00
2018-07-30T13:05:52.885Z,37.50
2018-07-30T13:08:20.973Z,36.60
2018-07-30T13:10:49.129Z,37.00
2018-07-30T13:13:17.677Z,36.70
2018-07-30T13:15:46.714Z,36.20
2018-07-30T13:18:15.811Z,36.70
2018-07-30T13:20:43.881Z,36.30
2018-07-30T13:23:12.671Z,34.40
2018-07-30T13:25:41.598Z,34.30
2018-07-30T13:30:38.913Z,33.90
2018-07-30T13:33:06.981Z,34.10
2018-07-30T13:35:35.647Z,34.40
2018-07-30T13:38:04.165Z,34.50
2018-07-30T13:40:32.970Z,34.30
2018-07-30T13:43:01.121Z,33.90
2018-07-30T13:45:29.277Z,34.10
2018-07-30T13:47:57.501Z,33.70
2018-07-30T13:50:25.829Z,33.90
2018-07-30T13:52:54.572Z,34.30
2018-07-30T13:57:51.169Z,33.80
2018-07-30T14:00:19.698Z,33.70
2018-07-30T14:02:48.633Z,33.40
2018-07-30T14:05:16.820Z,33.50
2018-07-30T14:07:45.638Z,33.80
2018-07-30T14:10:14.722Z,34.10
2018-07-30T14:12:42.837Z,33.50
2018-07-30T14:15:11.294Z,33.80
2018-07-30T14:17:39.830Z,33.40
2018-07-30T14:20:09.219Z,33.70
2018-07-30T14:22:37.628Z,33.40
2018-07-30T14:25:07.463Z,33.60
2018-07-30T14:27:35.697Z,33.60
2018-07-30T14:37:30.281Z,33.40
2018-07-30T14:39:58.690Z,33.30
2018-07-30T14:42:27.321Z,33.30
2018-07-30T14:44:55.706Z,33.40
2018-07-30T14:47:24.614Z,33.10
2018-07-30T14:54:49.697Z,33.50
2018-07-30T14:57:18.062Z,33.70
2018-07-30T14:59:46.291Z,33.50
2018-07-30T15:02:14.354Z,33.50
2018-07-30T15:04:43.583Z,33.40
2018-07-30T15:07:11.757Z,33.50
2018-07-30T15:09:40.510Z,33.50
2018-07-30T15:14:37.917Z,32.90
2018-07-30T15:17:06.832Z,32.80
2018-07-30T15:19:35.093Z,33.00
2018-07-30T15:22:03.678Z,33.10
2018-07-30T15:24:33.445Z,33.00
2018-07-30T15:27:02.338Z,33.30
2018-07-30T15:29:30.448Z,33.50
2018-07-30T15:31:58.653Z,33.60
2018-07-30T15:34:27.617Z,33.40
2018-07-30T15:36:56.321Z,33.20
2018-07-30T15:39:24.465Z,33.20
2018-07-30T15:41:52.653Z,33.30
2018-07-30T15:44:20.715Z,33.20
2018-07-30T15:46:49.414Z,33.20
2018-07-30T15:49:18.889Z,32.70
2018-07-30T15:51:48.068Z,32.20
2018-07-30T15:54:16.837Z,32.30
2018-07-30T15:56:48.978Z,32.30
2018-07-30T15:59:17.082Z,32.10
2018-07-30T16:01:45.546Z,32.10
2018-07-30T16:04:13.756Z,32.10
2018-07-30T16:09:10.789Z,32.00
2018-07-30T16:11:39.237Z,31.90
2018-07-30T16:14:07.957Z,32.00
2018-07-30T16:16:36.106Z,32.10
2018-07-30T16:19:04.831Z,32.20
2018-07-30T16:21:33.981Z,32.30
2018-07-30T16:24:04.218Z,32.30
2018-07-30T16:26:32.481Z,32.40
2018-07-30T16:29:00.721Z,32.30
2018-07-30T16:33:56.992Z,32.40
2018-07-30T16:36:25.941Z,32.60
2018-07-30T16:38:54.408Z,32.50
2018-07-30T16:41:22.729Z,32.30
2018-07-30T16:43:51.545Z,32.60
2018-07-30T16:46:19.669Z,32.40
2018-07-30T16:48:48.286Z,32.50
2018-07-30T16:51:16.695Z,32.70
2018-07-30T16:53:44.897Z,32.70
2018-07-30T16:56:13.737Z,32.70
2018-07-30T17:01:10.307Z,31.90
2018-07-30T17:03:38.494Z,31.60
2018-07-30T17:06:06.817Z,31.70
2018-07-30T17:08:35.835Z,31.80
2018-07-30T17:16:05.440Z,31.40
2018-07-30T17:18:33.879Z,30.90
2018-07-30T17:21:02.257Z,30.80
2018-07-30T17:23:30.697Z,30.70
2018-07-30T17:25:59.069Z,30.70
2018-07-30T17:28:27.276Z,30.40
2018-07-30T17:33:23.885Z,30.20
2018-07-30T17:35:51.938Z,30.10
2018-07-30T17:38:20.181Z,30.10
2018-07-30T17:43:21.789Z,29.90
2018-07-30T17:45:50.707Z,29.90
2018-07-30T17:48:18.857Z,29.90
2018-07-30T17:50:47.361Z,29.80
2018-07-30T17:53:16.246Z,29.80
2018-07-30T17:55:44.689Z,29.70
2018-07-30T17:58:13.397Z,29.60
2018-07-30T18:00:41.552Z,29.50
2018-07-30T18:05:40.073Z,29.20
2018-07-30T18:08:08.885Z,29.00
2018-07-30T18:10:37.264Z,28.90
2018-07-30T18:13:05.972Z,28.80
2018-07-30T18:15:34.173Z,28.80
2018-07-30T18:18:03.721Z,28.90
2018-07-30T18:20:31.925Z,29.10
2018-07-30T18:23:00.078Z,29.10
2018-07-30T18:25:28.670Z,29.20
2018-07-30T18:27:57.222Z,29.10
2018-07-30T18:30:25.794Z,29.10
2018-07-30T18:32:54.585Z,29.00
2018-07-30T18:35:24.253Z,29.00
2018-07-30T18:37:52.465Z,28.90
2018-07-30T18:40:20.530Z,28.70
2018-07-30T18:42:48.731Z,28.60
2018-07-30T18:45:17.246Z,28.50
2018-07-30T18:47:46.005Z,28.50
2018-07-30T18:50:15.229Z,28.40
2018-07-30T18:52:43.689Z,28.40
2018-07-30T18:55:11.885Z,28.40
2018-07-30T18:57:40.810Z,28.30
2018-07-30T19:02:37.194Z,28.20
2018-07-30T19:05:05.661Z,28.10
2018-07-30T19:10:02.641Z,28.00
2018-07-30T19:12:31.718Z,27.90
2018-07-30T19:15:00.090Z,27.80
2018-07-30T19:17:29.045Z,27.70
2018-07-30T19:19:57.177Z,27.50
2018-07-30T19:22:26.657Z,27.40
2018-07-30T19:27:24.095Z,27.10
2018-07-30T19:29:52.225Z,27.00
2018-07-30T19:32:21.289Z,27.00
2018-07-30T19:34:49.721Z,26.90
2018-07-30T19:37:17.781Z,26.80
2018-07-30T19:39:46.308Z,26.80
2018-07-30T19:42:14.989Z,26.70
2018-07-30T19:44:43.179Z,26.60
2018-07-30T19:47:12.945Z,26.50
2018-07-30T19:49:41.130Z,26.50
2018-07-30T19:52:10.035Z,26.40
2018-07-30T19:54:38.120Z,26.40
2018-07-30T19:57:07.262Z,26.30
2018-07-30T19:59:35.408Z,26.30
2018-07-30T20:04:32.054Z,26.30
2018-07-30T20:07:00.226Z,26.20
2018-07-30T20:09:28.367Z,26.20
2018-07-30T20:11:57.869Z,26.20
2018-07-30T20:14:26.326Z,26.10
2018-07-30T20:24:18.997Z,26.00
2018-07-30T20:26:47.134Z,25.90
2018-07-30T20:29:15.798Z,25.90
2018-07-30T20:31:44.030Z,25.90
2018-07-30T20:34:12.943Z,25.90
2018-07-30T20:39:09.654Z,25.90
2018-07-30T20:41:37.821Z,25.90
2018-07-30T20:44:05.893Z,25.80
2018-07-30T20:46:35.229Z,25.80
2018-07-30T20:49:03.503Z,25.80
2018-07-30T20:51:33.081Z,25.80
2018-07-30T20:54:01.601Z,25.80
2018-07-30T20:56:30.608Z,25.80
2018-07-30T20:58:59.076Z,25.70
2018-07-30T21:01:28.013Z,25.70
2018-07-30T21:03:56.677Z,25.70
2018-07-30T21:08:54.368Z,25.60
2018-07-30T21:11:22.470Z,25.50
2018-07-30T21:13:50.602Z,25.50
2018-07-30T21:18:47.817Z,25.40
2018-07-30T21:21:16.532Z,25.30
2018-07-30T21:23:45.597Z,25.20
2018-07-30T21:26:13.781Z,25.20
2018-07-30T21:28:42.417Z,25.10
2018-07-30T21:36:07.873Z,25.00
2018-07-30T21:38:37.236Z,25.00
2018-07-30T21:41:05.546Z,24.90
2018-07-30T21:43:33.830Z,24.90
2018-07-30T21:46:02.065Z,24.90
2018-07-30T21:48:30.208Z,24.80
2018-07-30T21:50:58.786Z,24.80
2018-07-30T21:53:26.857Z,24.80
2018-07-30T21:55:56.475Z,24.80
2018-07-30T21:58:24.809Z,24.70
2018-07-30T22:03:26.061Z,24.70
2018-07-30T22:05:58.298Z,24.70
2018-07-30T22:08:27.742Z,24.20
2018-07-30T22:13:24.498Z,24.80
2018-07-30T22:15:52.918Z,24.70
2018-07-30T22:18:20.969Z,24.80
2018-07-30T22:23:17.477Z,24.70
2018-07-30T22:25:45.868Z,24.70
2018-07-30T22:28:14.855Z,24.80
2018-07-30T22:30:44.031Z,24.80
2018-07-30T22:33:12.579Z,24.80
2018-07-30T22:38:09.625Z,24.80
2018-07-30T22:40:38.301Z,24.90
2018-07-30T22:43:07.205Z,24.90
2018-07-30T22:45:35.676Z,24.80
2018-07-30T22:48:04.329Z,24.90
2018-07-30T22:50:33.482Z,24.80
2018-07-30T22:55:30.229Z,24.80
2018-07-30T23:02:55.578Z,24.80
2018-07-30T23:05:23.985Z,24.80
2018-07-30T23:07:52.185Z,24.80
2018-07-30T23:10:20.366Z,24.80
2018-07-30T23:12:48.569Z,24.70
2018-07-30T23:15:16.723Z,24.70
2018-07-30T23:17:44.937Z,24.60
2018-07-30T23:22:41.641Z,24.50
2018-07-30T23:25:10.553Z,24.50
2018-07-30T23:27:39.417Z,24.40
2018-07-30T23:30:08.333Z,24.40
2018-07-30T23:32:36.473Z,24.30
2018-07-30T23:35:04.698Z,24.20
2018-07-30T23:37:34.268Z,24.20
2018-07-30T23:40:03.309Z,24.20
2018-07-30T23:42:31.577Z,24.10
2018-07-30T23:45:00.326Z,24.00
2018-07-30T23:47:28.677Z,24.00
2018-07-30T23:54:54.401Z,23.90
2018-07-30T23:57:23.098Z,23.80
2018-07-30T23:59:51.945Z,23.80
